Time;durP1;ratioP1;P1;durP2;ratioP2;P2;SDS_P1;SDS_P2;PMS_P1;PMS_P2;Temp;Humidity;BMP_temperature;BMP_pressure;BME280_temperature;BME280_humidity;BME280_pressure;Samples;Min_cycle;Max_cycle;Signal;HPM_P1;HPM_P2
2022/03/26 00:00:27;;;;;;;50.83;32.30;;;6.90;1.00;;;;;;4977153;28;20883;-66
2022/03/26 00:03:11;;;;;;;54.33;30.90;;;6.90;1.00;;;;;;4978680;28;20241;-66
2022/03/26 00:05:39;;;;;;;56.37;32.70;;;6.90;1.00;;;;;;4979236;28;20724;-66
2022/03/26 00:08:07;;;;;;;49.60;31.37;;;6.80;1.00;;;;;;4962692;28;20252;-66
2022/03/26 00:10:39;;;;;;;57.17;33.77;;;6.80;1.00;;;;;;4952916;28;20194;-66
2022/03/26 00:13:06;;;;;;;51.27;31.77;;;6.90;1.00;;;;;;4968156;28;20197;-66
2022/03/26 00:15:33;;;;;;;49.50;31.73;;;6.90;1.00;;;;;;4963567;28;20202;-65
2022/03/26 00:18:00;;;;;;;51.53;33.43;;;6.90;1.00;;;;;;4981269;28;20193;-65
2022/03/26 00:20:28;;;;;;;56.07;32.37;;;6.80;1.00;;;;;;4979217;28;20274;-65
2022/03/26 00:22:54;;;;;;;52.43;31.50;;;6.80;1.00;;;;;;4981907;28;20221;-65
2022/03/26 00:25:21;;;;;;;52.23;31.57;;;6.80;1.00;;;;;;4972034;28;20249;-65
2022/03/26 00:27:50;;;;;;;49.57;31.40;;;6.80;1.00;;;;;;4973438;28;20233;-64
2022/03/26 00:30:19;;;;;;;51.03;31.30;;;6.80;1.00;;;;;;4956181;28;20243;-65
2022/03/26 00:32:46;;;;;;;51.80;32.07;;;6.80;1.00;;;;;;4965544;28;20306;-65
2022/03/26 00:35:15;;;;;;;53.17;33.13;;;6.80;1.00;;;;;;4965762;28;20205;-65
2022/03/26 00:37:42;;;;;;;59.30;34.50;;;6.80;1.00;;;;;;4954910;28;20214;-64
2022/03/26 00:40:10;;;;;;;56.53;35.17;;;6.80;1.00;;;;;;4977479;28;20304;-64
2022/03/26 00:42:38;;;;;;;59.37;34.97;;;6.70;1.00;;;;;;4973574;28;20322;-64
2022/03/26 00:45:06;;;;;;;57.83;36.10;;;6.70;1.00;;;;;;4970941;28;20900;-64
2022/03/26 00:47:35;;;;;;;64.43;37.83;;;6.70;1.00;;;;;;4957113;28;20210;-64
2022/03/26 00:50:05;;;;;;;63.50;38.87;;;6.60;1.00;;;;;;4964222;28;20205;-64
2022/03/26 00:52:32;;;;;;;63.37;39.27;;;6.50;1.00;;;;;;4964321;28;20556;-64
2022/03/26 00:54:59;;;;;;;70.27;40.33;;;6.50;27.40;;;;;;4964467;28;20660;-65
2022/03/26 00:57:26;;;;;;;63.10;39.37;;;6.50;76.40;;;;;;4981818;28;20222;-64
2022/03/26 00:59:58;;;;;;;63.97;39.27;;;6.40;99.90;;;;;;4979840;28;20300;-64
2022/03/26 01:02:27;;;;;;;67.23;38.70;;;6.40;99.90;;;;;;4965661;28;20210;-65
2022/03/26 01:04:54;;;;;;;62.97;38.67;;;6.40;99.90;;;;;;4982437;28;20700;-64
2022/03/26 01:07:21;;;;;;;60.53;37.17;;;6.40;99.90;;;;;;4955187;28;20225;-63
2022/03/26 01:09:48;;;;;;;56.70;36.23;;;6.50;99.90;;;;;;4979915;28;20210;-64
2022/03/26 01:12:15;;;;;;;61.80;36.13;;;6.50;99.90;;;;;;4971588;28;20202;-63
2022/03/26 01:14:44;;;;;;;60.63;37.77;;;6.50;99.90;;;;;;4949721;28;20628;-63
2022/03/26 01:17:17;;;;;;;60.07;38.47;;;6.50;99.90;;;;;;4947359;28;20214;-66
2022/03/26 01:19:47;;;;;;;59.23;36.93;;;6.50;99.90;;;;;;4970873;28;20195;-65
2022/03/26 01:22:14;;;;;;;59.87;36.60;;;6.50;99.90;;;;;;4963625;28;20226;-65
2022/03/26 01:24:41;;;;;;;59.20;36.57;;;6.50;98.70;;;;;;4981264;28;20258;-65
2022/03/26 01:27:09;;;;;;;58.73;37.57;;;6.40;92.20;;;;;;4980950;28;20274;-66
2022/03/26 01:29:40;;;;;;;60.30;35.57;;;6.50;75.20;;;;;;4981286;28;20808;-65
2022/03/26 01:32:09;;;;;;;61.33;36.37;;;6.50;35.00;;;;;;4946862;28;20634;-65
2022/03/26 01:34:37;;;;;;;55.53;36.20;;;6.40;26.50;;;;;;4972130;28;20305;-65
2022/03/26 01:37:04;;;;;;;57.80;37.17;;;6.40;38.60;;;;;;4963635;28;20317;-65
2022/03/26 01:39:31;;;;;;;60.20;35.63;;;6.40;40.30;;;;;;4967379;28;20233;-66
2022/03/26 01:42:09;;;;;;;59.10;36.37;;;6.30;30.90;;;;;;4968366;28;20198;-65
2022/03/26 01:44:39;;;;;;;60.50;36.73;;;6.30;31.50;;;;;;4962016;28;20190;-64
2022/03/26 01:47:08;;;;;;;53.67;35.13;;;6.30;27.80;;;;;;4982594;28;20206;-65
2022/03/26 01:49:35;;;;;;;60.00;35.77;;;6.20;32.10;;;;;;4975499;28;20653;-64
2022/03/26 01:52:04;;;;;;;57.30;35.17;;;6.20;47.90;;;;;;4958247;28;20265;-64
2022/03/26 01:54:32;;;;;;;62.93;37.67;;;6.20;69.70;;;;;;4973078;28;20271;-65
2022/03/26 01:57:02;;;;;;;58.47;36.97;;;6.20;94.60;;;;;;4965079;28;20225;-64
2022/03/26 01:59:29;;;;;;;58.10;35.10;;;6.10;99.90;;;;;;4981413;28;20216;-65
2022/03/26 02:01:59;;;;;;;56.27;34.80;;;6.10;99.90;;;;;;4984258;28;20273;-65
2022/03/26 02:04:28;;;;;;;67.00;36.57;;;6.00;99.90;;;;;;4984769;28;20333;-64
2022/03/26 02:06:58;;;;;;;52.90;32.57;;;6.00;99.90;;;;;;4954070;28;20217;-63
2022/03/26 02:09:25;;;;;;;57.00;33.37;;;5.90;99.90;;;;;;4983633;28;20293;-64
2022/03/26 02:11:55;;;;;;;47.77;31.57;;;5.80;99.90;;;;;;4966004;28;20260;-63
2022/03/26 02:14:24;;;;;;;52.00;34.03;;;5.70;99.90;;;;;;4966403;28;20723;-64
2022/03/26 02:16:52;;;;;;;53.87;33.53;;;5.80;99.90;;;;;;4982908;28;20249;-64
2022/03/26 02:19:20;;;;;;;53.80;32.87;;;5.70;99.90;;;;;;4967640;28;20277;-64
2022/03/26 02:21:50;;;;;;;59.87;36.67;;;5.70;99.90;;;;;;4950362;28;20246;-63
2022/03/26 02:24:17;;;;;;;62.50;33.37;;;5.70;99.90;;;;;;4973392;28;20202;-63
2022/03/26 02:26:46;;;;;;;54.17;33.17;;;5.70;99.90;;;;;;4980274;28;20205;-65
2022/03/26 02:29:13;;;;;;;64.10;37.43;;;5.70;99.90;;;;;;4982950;28;20226;-64
2022/03/26 02:31:40;;;;;;;53.73;33.90;;;5.60;99.90;;;;;;4982503;28;20257;-64
2022/03/26 02:34:08;;;;;;;51.43;33.17;;;5.60;99.90;;;;;;4965860;28;20210;-63
2022/03/26 02:36:35;;;;;;;55.20;33.93;;;5.60;99.90;;;;;;4983991;28;20310;-65
2022/03/26 02:39:06;;;;;;;55.90;34.43;;;5.50;99.90;;;;;;4971114;28;20257;-64
2022/03/26 02:41:38;;;;;;;58.10;34.37;;;5.50;99.90;;;;;;4973750;28;20197;-65
2022/03/26 02:44:07;;;;;;;59.17;33.27;;;5.40;99.90;;;;;;4978223;28;20281;-64
2022/03/26 02:46:37;;;;;;;61.80;33.63;;;5.40;99.90;;;;;;4959155;28;20210;-64
2022/03/26 02:49:06;;;;;;;60.30;33.30;;;5.20;99.90;;;;;;4946175;28;20264;-64
2022/03/26 02:51:33;;;;;;;58.60;34.90;;;5.10;1.00;;;;;;4953049;28;20618;-65
2022/03/26 02:54:00;;;;;;;56.40;34.47;;;4.90;1.00;;;;;;4971222;28;20202;-64
2022/03/26 02:56:29;;;;;;;55.33;34.73;;;4.70;1.00;;;;;;4962216;28;20208;-65
2022/03/26 02:58:56;;;;;;;53.97;31.87;;;4.60;1.00;;;;;;4963408;28;20691;-63
2022/03/26 03:01:26;;;;;;;51.90;32.57;;;4.60;1.00;;;;;;4965936;28;20210;-64
2022/03/26 03:03:55;;;;;;;60.63;33.90;;;4.60;1.00;;;;;;4980994;28;20209;-64
2022/03/26 03:06:22;;;;;;;52.30;30.47;;;4.50;1.00;;;;;;4963883;28;20698;-64
2022/03/26 03:08:49;;;;;;;54.17;31.63;;;4.50;1.00;;;;;;4964830;28;20201;-63
2022/03/26 03:11:17;;;;;;;49.33;31.03;;;4.40;99.90;;;;;;4954068;28;20298;-64
2022/03/26 03:13:44;;;;;;;52.10;30.23;;;4.50;31.00;;;;;;4982086;28;20203;-64
2022/03/26 03:16:11;;;;;;;61.20;31.93;;;4.60;1.00;;;;;;4965146;28;20288;-66
2022/03/26 03:18:38;;;;;;;52.50;29.63;;;4.60;1.00;;;;;;4966098;28;20225;-65
2022/03/26 03:21:10;;;;;;;56.97;31.17;;;4.60;1.00;;;;;;4955444;28;20226;-65
2022/03/26 03:23:37;;;;;;;47.80;29.73;;;4.70;1.00;;;;;;4996112;28;20559;-66
2022/03/26 03:26:04;;;;;;;50.90;31.47;;;4.70;1.00;;;;;;4966416;28;20193;-66
2022/03/26 03:28:31;;;;;;;57.37;30.90;;;4.70;1.00;;;;;;4965064;28;20252;-65
2022/03/26 03:31:00;;;;;;;53.53;30.93;;;4.60;1.00;;;;;;4982019;28;20901;-65
2022/03/26 03:33:27;;;;;;;51.67;30.43;;;4.60;1.00;;;;;;4971849;28;20233;-65
2022/03/26 03:35:55;;;;;;;53.60;31.17;;;4.50;1.00;;;;;;4964735;28;20291;-64
2022/03/26 03:38:25;;;;;;;53.10;30.93;;;4.50;1.00;;;;;;4977882;28;20675;-64
2022/03/26 03:40:52;;;;;;;51.20;30.60;;;4.40;36.10;;;;;;4980272;28;20200;-65
2022/03/26 03:43:19;;;;;;;57.53;30.03;;;4.20;99.90;;;;;;4980346;28;20222;-63
2022/03/26 03:45:48;;;;;;;51.37;29.57;;;4.10;99.90;;;;;;4970356;28;20293;-65
2022/03/26 03:48:15;;;;;;;48.23;28.23;;;4.00;99.90;;;;;;4965366;28;20202;-65
2022/03/26 03:50:43;;;;;;;45.57;26.20;;;4.00;99.90;;;;;;4963535;28;20198;-64
2022/03/26 03:53:10;;;;;;;45.73;27.17;;;4.10;99.90;;;;;;4970795;28;20240;-64
2022/03/26 03:55:39;;;;;;;46.90;26.70;;;4.20;99.90;;;;;;4964047;28;20272;-64
2022/03/26 03:58:06;;;;;;;50.97;28.07;;;4.20;99.90;;;;;;4981500;28;20266;-63
2022/03/26 04:00:35;;;;;;;46.07;27.00;;;4.20;99.90;;;;;;4968358;28;20272;-64
2022/03/26 04:03:03;;;;;;;53.03;30.03;;;4.20;76.30;;;;;;4963830;28;20235;-64
2022/03/26 04:05:35;;;;;;;50.47;29.83;;;4.20;18.40;;;;;;4979760;28;20222;-63
2022/03/26 04:08:02;;;;;;;60.50;30.87;;;4.30;1.00;;;;;;4962145;28;20206;-63
2022/03/26 04:10:31;;;;;;;52.00;30.73;;;4.30;1.00;;;;;;4979131;28;20771;-63
2022/03/26 04:12:58;;;;;;;63.33;37.30;;;4.30;1.00;;;;;;4962090;28;20205;-64
2022/03/26 04:15:28;;;;;;;51.13;29.67;;;4.30;1.00;;;;;;4979528;28;20202;-64
2022/03/26 04:17:55;;;;;;;50.00;29.37;;;4.30;1.00;;;;;;4970007;28;20707;-63
2022/03/26 04:20:22;;;;;;;43.63;27.33;;;4.20;1.00;;;;;;4962643;28;20201;-63
2022/03/26 04:22:51;;;;;;;48.73;28.90;;;4.30;1.00;;;;;;4954046;28;20956;-64
2022/03/26 04:25:18;;;;;;;50.60;29.77;;;4.30;1.00;;;;;;4979260;28;20297;-64
2022/03/26 04:27:49;;;;;;;48.13;29.20;;;4.30;1.00;;;;;;4981908;28;21405;-63
2022/03/26 04:30:16;;;;;;;48.30;28.70;;;4.20;1.00;;;;;;4977307;28;20216;-64
2022/03/26 04:32:46;;;;;;;46.80;27.87;;;4.30;1.00;;;;;;4982042;28;20284;-64
2022/03/26 04:35:13;;;;;;;47.83;29.07;;;4.20;1.00;;;;;;4979773;28;20627;-64
2022/03/26 04:37:41;;;;;;;43.83;27.37;;;4.20;1.00;;;;;;4968657;28;20237;-64
2022/03/26 04:40:11;;;;;;;50.87;27.53;;;4.20;1.00;;;;;;4979978;28;20252;-64
2022/03/26 04:42:40;;;;;;;49.30;27.73;;;4.20;1.00;;;;;;4970517;28;20251;-63
2022/03/26 04:45:09;;;;;;;43.87;28.30;;;4.10;1.00;;;;;;4967871;28;20280;-63
2022/03/26 04:47:36;;;;;;;48.70;28.47;;;4.20;1.00;;;;;;4963534;28;20223;-64
2022/03/26 04:50:04;;;;;;;42.97;27.90;;;4.30;1.00;;;;;;4991602;28;20281;-65
2022/03/26 04:52:38;;;;;;;52.00;31.70;;;4.10;1.00;;;;;;4948193;28;20600;-65
2022/03/26 04:55:10;;;;;;;55.43;30.73;;;4.10;1.00;;;;;;4962582;28;20204;-66
2022/03/26 04:57:42;;;;;;;52.27;29.83;;;4.10;1.00;;;;;;4964233;28;20284;-66
2022/03/26 05:00:11;;;;;;;55.47;33.23;;;4.10;1.00;;;;;;4961398;28;20197;-67
2022/03/26 05:02:39;;;;;;;54.87;32.13;;;4.00;1.00;;;;;;4963840;28;20511;-66
2022/03/26 05:05:10;;;;;;;56.17;33.97;;;4.00;1.00;;;;;;4946086;28;20198;-66
2022/03/26 05:07:47;;;;;;;59.50;34.13;;;4.00;1.00;;;;;;4979516;28;20193;-65
2022/03/26 05:10:22;;;;;;;57.87;34.13;;;4.00;1.00;;;;;;4980024;28;20221;-64
2022/03/26 05:12:51;;;;;;;50.93;31.67;;;4.00;1.00;;;;;;4980175;28;20197;-63
2022/03/26 05:15:21;;;;;;;49.53;30.50;;;3.80;1.00;;;;;;4977108;28;20209;-64
2022/03/26 05:17:49;;;;;;;58.80;31.73;;;3.80;1.00;;;;;;4963309;28;20245;-67
2022/03/26 05:20:17;;;;;;;49.00;29.50;;;3.70;99.90;;;;;;4964056;28;20241;-66
2022/03/26 05:22:48;;;;;;;54.23;30.50;;;3.70;86.40;;;;;;4983618;28;20772;-66
2022/03/26 05:25:16;;;;;;;51.43;29.73;;;3.70;36.60;;;;;;4981806;28;20231;-66
2022/03/26 05:27:47;;;;;;;47.77;29.77;;;3.80;4.10;;;;;;4970755;28;20233;-64
2022/03/26 05:30:16;;;;;;;50.33;29.93;;;3.70;99.90;;;;;;4981040;28;20197;-64
2022/03/26 05:32:45;;;;;;;51.67;29.00;;;3.70;99.90;;;;;;4973090;28;20241;-64
2022/03/26 05:35:16;;;;;;;51.23;27.67;;;3.80;99.90;;;;;;4964051;28;20300;-64
2022/03/26 05:37:47;;;;;;;47.57;28.97;;;3.60;99.90;;;;;;4981048;28;20216;-63
2022/03/26 05:40:17;;;;;;;48.20;27.93;;;3.60;99.90;;;;;;4961113;28;20313;-64
2022/03/26 05:42:48;;;;;;;50.63;28.70;;;3.30;1.00;;;;;;4978805;28;20233;-65
2022/03/26 05:45:19;;;;;;;46.77;28.33;;;3.30;1.00;;;;;;4945487;28;20708;-65
2022/03/26 05:47:52;;;;;;;48.57;27.80;;;3.40;1.00;;;;;;4954127;28;20242;-65
2022/03/26 05:50:19;;;;;;;58.40;28.40;;;3.20;1.00;;;;;;4960231;28;20895;-64
2022/03/26 05:52:46;;;;;;;49.57;29.53;;;3.10;1.00;;;;;;4969026;28;20210;-64
2022/03/26 05:55:16;;;;;;;54.80;30.07;;;3.10;1.80;;;;;;4952860;28;20217;-65
2022/03/26 05:57:46;;;;;;;45.00;27.20;;;3.20;15.10;;;;;;4963912;28;20221;-62
2022/03/26 06:00:14;;;;;;;47.57;27.67;;;3.60;1.00;;;;;;4976554;28;20198;-63
2022/03/26 06:02:46;;;;;;;48.93;27.93;;;4.00;99.90;;;;;;4969561;28;20198;-64
2022/03/26 06:05:14;;;;;;;44.33;25.60;;;4.70;58.10;;;;;;4964102;28;20190;-63
2022/03/26 06:07:41;;;;;;;49.27;27.33;;;5.80;99.90;;;;;;4962551;28;20810;-64
2022/03/26 06:10:08;;;;;;;46.60;27.47;;;6.30;99.90;;;;;;4968119;28;20923;-64
2022/03/26 06:12:40;;;;;;;38.73;25.77;;;6.80;82.10;;;;;;4963760;28;21073;-65
2022/03/26 06:15:09;;;;;;;47.33;26.77;;;6.80;1.00;;;;;;4946580;28;20966;-64
2022/03/26 06:17:56;;;;;;;37.53;25.17;;;6.80;1.00;;;;;;4962973;28;20583;-64
2022/03/26 06:20:26;;;;;;;40.50;25.10;;;7.80;1.00;;;;;;4965494;28;20203;-64
2022/03/26 06:22:53;;;;;;;46.07;27.07;;;8.80;1.00;;;;;;4963148;28;20222;-64
2022/03/26 06:25:21;;;;;;;36.27;25.13;;;9.50;99.90;;;;;;4961447;28;20206;-65
2022/03/26 06:27:48;;;;;;;40.07;24.33;;;11.30;99.90;;;;;;4962424;28;20242;-65
2022/03/26 06:30:16;;;;;;;40.53;25.17;;;12.70;1.00;;;;;;4975023;28;20294;-66
2022/03/26 06:32:45;;;;;;;38.37;24.40;;;13.50;1.00;;;;;;4957937;28;20253;-66
2022/03/26 06:35:12;;;;;;;37.23;24.83;;;14.10;1.00;;;;;;4953201;28;20608;-65
2022/03/26 06:37:39;;;;;;;36.57;26.07;;;14.00;1.00;;;;;;4968359;28;20222;-67
2022/03/26 06:40:08;;;;;;;40.13;25.37;;;13.90;1.00;;;;;;4960664;28;20245;-65
2022/03/26 06:42:38;;;;;;;40.67;27.27;;;15.30;1.00;;;;;;4969241;28;20290;-65
2022/03/26 06:45:05;;;;;;;36.33;25.37;;;13.20;1.00;;;;;;4960845;28;20866;-65
2022/03/26 06:47:34;;;;;;;45.13;26.73;;;12.90;1.00;;;;;;4968919;28;20207;-66
2022/03/26 06:50:04;;;;;;;40.23;26.90;;;15.10;1.00;;;;;;4959670;28;20225;-64
2022/03/26 06:52:31;;;;;;;40.10;28.43;;;16.60;99.90;;;;;;4954832;28;21043;-65
2022/03/26 06:55:04;;;;;;;43.07;28.73;;;15.10;99.90;;;;;;4953346;28;20237;-65
2022/03/26 06:57:31;;;;;;;48.80;29.53;;;14.60;99.90;;;;;;4957745;28;20327;-65
2022/03/26 07:00:03;;;;;;;45.97;29.05;;;16.30;99.90;;;;;;4961818;28;20222;-65
2022/03/26 07:02:30;;;;;;;44.20;29.25;;;15.50;99.90;;;;;;4952035;28;20199;-65
2022/03/26 07:04:57;;;;;;;45.87;30.07;;;15.60;99.90;;;;;;4978086;28;20639;-68
2022/03/26 07:07:24;;;;;;;41.58;28.73;;;15.90;99.90;;;;;;4967634;28;20203;-68
2022/03/26 07:09:59;;;;;;;36.97;27.65;;;18.40;99.90;;;;;;4966023;28;20214;-68
2022/03/26 07:12:29;;;;;;;43.88;29.35;;;20.60;99.90;;;;;;4964350;28;20619;-68
2022/03/26 07:14:57;;;;;;;49.00;29.77;;;21.00;99.90;;;;;;4977827;28;20229;-68
2022/03/26 07:17:24;;;;;;;38.17;29.05;;;20.60;99.90;;;;;;4960081;28;20221;-68
2022/03/26 07:19:51;;;;;;;36.85;28.25;;;21.50;99.90;;;;;;4962657;28;20194;-68
2022/03/26 07:22:19;;;;;;;41.35;30.45;;;23.40;99.90;;;;;;4950572;28;20222;-68
2022/03/26 07:24:46;;;;;;;42.88;28.73;;;21.90;99.90;;;;;;4976010;28;20206;-68
2022/03/26 07:27:12;;;;;;;38.10;26.45;;;22.40;99.90;;;;;;4965590;28;20309;-68
2022/03/26 07:29:39;;;;;;;40.20;30.55;;;22.80;99.90;;;;;;4969916;28;20227;-68
2022/03/26 07:32:07;;;;;;;44.45;30.23;;;23.30;99.90;;;;;;4966973;28;20230;-66
2022/03/26 07:34:34;;;;;;;41.90;30.48;;;23.50;99.90;;;;;;4962255;28;20270;-68
2022/03/26 07:37:02;;;;;;;43.38;29.40;;;21.60;99.90;;;;;;4967145;28;20241;-68
2022/03/26 07:39:28;;;;;;;37.72;29.10;;;21.40;99.90;;;;;;4946748;28;20267;-64
2022/03/26 07:41:55;;;;;;;34.58;27.92;;;23.70;99.90;;;;;;4964488;28;20207;-64
2022/03/26 07:44:22;;;;;;;43.15;28.73;;;24.80;99.90;;;;;;4959545;28;20203;-64
2022/03/26 07:46:49;;;;;;;33.75;29.15;;;27.20;99.90;;;;;;4962170;28;20201;-67
2022/03/26 07:49:18;;;;;;;38.65;29.20;;;27.90;99.90;;;;;;4961689;28;20668;-66
2022/03/26 07:51:45;;;;;;;34.97;28.67;;;28.30;99.90;;;;;;4973890;28;20203;-68
2022/03/26 07:54:15;;;;;;;36.53;28.50;;;28.60;99.90;;;;;;4974659;28;20809;-65
2022/03/26 07:56:42;;;;;;;40.80;28.45;;;29.80;99.90;;;;;;4958208;28;20722;-65
2022/03/26 07:59:11;;;;;;;41.67;29.33;;;30.10;99.90;;;;;;4971797;28;20301;-65
2022/03/26 08:01:38;;;;;;;35.83;29.70;;;30.20;99.90;;;;;;4961488;28;20604;-65
2022/03/26 08:04:07;;;;;;;41.15;30.67;;;30.80;99.90;;;;;;4961645;28;20205;-64
2022/03/26 08:06:34;;;;;;;38.03;30.67;;;31.50;99.90;;;;;;4958281;28;20214;-65
2022/03/26 08:09:02;;;;;;;36.55;29.52;;;31.50;99.90;;;;;;4957171;28;20588;-64
2022/03/26 08:11:29;;;;;;;41.40;28.00;;;31.80;99.90;;;;;;4960516;28;20238;-64
2022/03/26 08:13:58;;;;;;;32.40;27.38;;;31.60;99.90;;;;;;4955133;28;20301;-64
2022/03/26 08:16:27;;;;;;;34.78;26.88;;;31.90;99.90;;;;;;4962839;28;20206;-65
2022/03/26 08:18:54;;;;;;;34.83;27.38;;;33.00;99.90;;;;;;4963025;28;20253;-67
2022/03/26 08:21:21;;;;;;;39.22;29.58;;;33.90;99.90;;;;;;4959599;28;20218;-69
2022/03/26 08:23:53;;;;;;;37.80;29.30;;;32.80;99.90;;;;;;4944972;28;20206;-67
2022/03/26 08:26:22;;;;;;;44.97;28.85;;;32.50;99.90;;;;;;4974029;28;20215;-65
2022/03/26 08:28:51;;;;;;;36.40;27.33;;;32.50;99.90;;;;;;4970259;28;20206;-66
2022/03/26 08:31:20;;;;;;;33.78;27.30;;;33.00;99.90;;;;;;4959267;28;20214;-66
2022/03/26 08:33:48;;;;;;;34.38;26.00;;;32.60;99.90;;;;;;4962644;28;20209;-66
2022/03/26 08:36:16;;;;;;;34.38;27.27;;;33.40;99.90;;;;;;4955939;28;20292;-65
2022/03/26 08:38:46;;;;;;;36.50;26.40;;;32.60;99.90;;;;;;4973519;28;20238;-69
2022/03/26 08:41:19;;;;;;;35.13;26.00;;;33.20;99.90;;;;;;4975743;28;20345;-66
2022/03/26 08:43:48;;;;;;;37.50;27.25;;;33.20;99.90;;;;;;4942199;28;20245;-64
2022/03/26 08:46:15;;;;;;;35.15;25.20;;;33.30;99.90;;;;;;4970449;28;20285;-63
2022/03/26 08:48:42;;;;;;;35.17;26.70;;;33.80;99.90;;;;;;4958617;28;20574;-65
2022/03/26 08:51:12;;;;;;;33.22;25.85;;;33.10;99.90;;;;;;4960014;28;20210;-65
2022/03/26 08:53:39;;;;;;;27.52;23.45;;;34.80;99.90;;;;;;4974144;28;20198;-65
2022/03/26 08:56:09;;;;;;;31.67;25.05;;;34.70;99.90;;;;;;4949371;28;20278;-66
2022/03/26 08:58:38;;;;;;;31.95;24.85;;;35.20;99.90;;;;;;4968085;28;20284;-66
2022/03/26 09:01:08;;;;;;;33.05;24.80;;;34.10;99.90;;;;;;4980478;28;20187;-66
2022/03/26 09:03:38;;;;;;;33.80;24.95;;;35.30;99.90;;;;;;4963555;28;20197;-66
2022/03/26 09:06:09;;;;;;;33.10;22.60;;;36.50;99.90;;;;;;4951951;28;20317;-66
2022/03/26 09:08:36;;;;;;;29.60;22.77;;;37.00;99.90;;;;;;4960787;28;20191;-66
2022/03/26 09:11:04;;;;;;;33.38;21.80;;;37.60;99.90;;;;;;4962143;28;20237;-66
2022/03/26 09:13:31;;;;;;;34.55;22.83;;;36.80;99.90;;;;;;4964263;28;20221;-65
2022/03/26 09:15:59;;;;;;;30.75;24.17;;;37.80;99.90;;;;;;4961526;28;20237;-65
2022/03/26 09:18:31;;;;;;;32.72;24.00;;;38.80;99.90;;;;;;4961271;28;20222;-66
2022/03/26 09:21:00;;;;;;;33.45;23.25;;;38.70;99.90;;;;;;4961291;28;20557;-65
2022/03/26 09:23:32;;;;;;;34.50;23.88;;;38.70;99.90;;;;;;4977393;28;20769;-65
2022/03/26 09:26:00;;;;;;;37.00;23.83;;;38.60;99.90;;;;;;4977716;28;20198;-66
2022/03/26 09:28:27;;;;;;;37.72;24.77;;;39.80;99.90;;;;;;4968287;28;20206;-66
2022/03/26 09:30:54;;;;;;;34.67;23.90;;;38.90;99.90;;;;;;4961758;28;20227;-66
2022/03/26 09:33:23;;;;;;;32.75;22.75;;;38.70;99.90;;;;;;4961209;28;20214;-65
2022/03/26 09:35:50;;;;;;;33.33;23.70;;;39.70;99.90;;;;;;4958809;28;20229;-65
2022/03/26 09:38:19;;;;;;;33.63;23.90;;;40.40;99.90;;;;;;4962472;28;20210;-66
2022/03/26 09:40:49;;;;;;;32.10;23.10;;;39.70;99.90;;;;;;4963332;28;20235;-66
2022/03/26 09:43:18;;;;;;;33.42;24.20;;;40.70;99.90;;;;;;4965344;28;20205;-66
2022/03/26 09:45:47;;;;;;;35.05;23.95;;;41.00;99.90;;;;;;4977705;28;20250;-66
2022/03/26 09:48:14;;;;;;;36.83;23.58;;;39.60;99.90;;;;;;4954552;28;20207;-66
2022/03/26 09:50:43;;;;;;;32.05;23.20;;;39.10;99.90;;;;;;4964084;28;20216;-65
2022/03/26 09:53:12;;;;;;;30.73;23.20;;;36.40;99.90;;;;;;4970228;28;20209;-67
2022/03/26 09:55:42;;;;;;;33.30;22.90;;;36.30;99.90;;;;;;4979350;28;20194;-66
2022/03/26 09:58:16;;;;;;;30.48;22.52;;;37.90;99.90;;;;;;4981229;28;20400;-66
2022/03/26 10:00:48;;;;;;;26.30;19.25;;;39.10;99.90;;;;;;4963382;28;20208;-66
2022/03/26 10:03:17;;;;;;;25.27;20.10;;;40.80;99.90;;;;;;4966171;28;20210;-66
2022/03/26 10:05:44;;;;;;;28.77;19.52;;;41.10;99.90;;;;;;4962768;28;20534;-66
2022/03/26 10:08:16;;;;;;;24.42;18.08;;;41.10;99.90;;;;;;4978340;28;20201;-67
2022/03/26 10:10:45;;;;;;;23.48;15.70;;;39.40;99.90;;;;;;4979773;28;20201;-66
2022/03/26 10:13:32;;;;;;;26.88;17.67;;;40.60;99.90;;;;;;4971337;28;20237;-67
2022/03/26 10:16:07;;;;;;;24.77;16.33;;;39.50;99.90;;;;;;4963756;28;20220;-66
2022/03/26 10:18:43;;;;;;;22.30;15.43;;;39.60;99.90;;;;;;4966667;28;20313;-67
2022/03/26 10:21:11;;;;;;;18.92;14.18;;;40.10;99.90;;;;;;4956342;28;20251;-66
2022/03/26 10:23:49;;;;;;;18.25;12.93;;;40.50;99.90;;;;;;4964368;28;20248;-67
2022/03/26 10:26:25;;;;;;;14.90;12.15;;;40.10;99.90;;;;;;4977580;28;20193;-66
2022/03/26 10:28:56;;;;;;;13.63;11.38;;;39.80;99.90;;;;;;4945684;28;20201;-67
2022/03/26 10:34:20;;;;;;;18.42;13.32;;;38.60;99.90;;;;;;4960131;28;20217;-67
2022/03/26 10:36:59;;;;;;;19.52;12.68;;;37.10;99.90;;;;;;4962219;28;20668;-66
2022/03/26 10:39:28;;;;;;;20.40;14.43;;;35.70;99.90;;;;;;4960847;28;20309;-67
2022/03/26 10:41:57;;;;;;;20.10;14.02;;;34.40;99.90;;;;;;4962882;28;20216;-66
2022/03/26 10:44:28;;;;;;;16.00;10.43;;;33.50;99.90;;;;;;4965045;28;20534;-66
2022/03/26 10:46:59;;;;;;;16.20;11.73;;;36.60;99.90;;;;;;4941242;28;20208;-66
2022/03/26 10:49:31;;;;;;;18.58;10.65;;;36.70;99.90;;;;;;4963603;28;20202;-67
2022/03/26 10:52:12;;;;;;;19.08;12.25;;;37.10;99.90;;;;;;4960888;28;20585;-67
2022/03/26 10:54:41;;;;;;;17.13;9.23;;;37.60;99.90;;;;;;4949629;28;20193;-68
2022/03/26 10:57:08;;;;;;;13.23;10.52;;;38.30;99.90;;;;;;4961578;28;20217;-67
2022/03/26 10:59:36;;;;;;;15.15;11.15;;;37.50;99.90;;;;;;4956184;28;20226;-66
2022/03/26 11:02:03;;;;;;;16.05;11.93;;;35.80;99.90;;;;;;4980227;28;20309;-67
2022/03/26 11:04:35;;;;;;;18.67;12.10;;;32.60;99.90;;;;;;4981422;28;21038;-66
2022/03/26 11:07:07;;;;;;;15.77;11.10;;;32.30;99.90;;;;;;4925993;28;20209;-66
2022/03/26 11:09:37;;;;;;;19.15;12.32;;;32.90;99.90;;;;;;4973671;28;20205;-67
2022/03/26 11:12:05;;;;;;;13.55;11.10;;;32.20;99.90;;;;;;4955542;28;20202;-67
2022/03/26 11:14:40;;;;;;;14.75;11.50;;;33.00;99.90;;;;;;4964777;28;20704;-66
2022/03/26 11:17:41;;;;;;;15.95;11.43;;;33.40;99.90;;;;;;4958758;28;20194;-67
2022/03/26 11:20:35;;;;;;;14.73;11.90;;;33.90;99.90;;;;;;4978493;28;20328;-68
2022/03/26 11:23:13;;;;;;;21.15;12.40;;;34.00;99.90;;;;;;4962313;28;20257;-67
2022/03/26 11:26:05;;;;;;;20.60;13.23;;;34.00;99.90;;;;;;4956182;28;20206;-67
2022/03/26 11:29:00;;;;;;;18.42;13.05;;;33.90;99.90;;;;;;4962709;28;20293;-66
2022/03/26 11:31:54;;;;;;;17.67;13.88;;;32.90;99.90;;;;;;4975768;28;20683;-67
2022/03/26 11:34:30;;;;;;;15.35;12.10;;;32.70;99.90;;;;;;4949031;28;20723;-66
2022/03/26 11:37:09;;;;;;;16.20;11.73;;;32.50;99.90;;;;;;4961132;28;20216;-67
2022/03/26 11:39:47;;;;;;;15.18;10.50;;;32.20;99.90;;;;;;4972375;28;20260;-67
2022/03/26 11:42:14;;;;;;;12.10;8.70;;;32.50;99.90;;;;;;4944458;28;20221;-67
2022/03/26 11:44:45;;;;;;;12.13;10.07;;;31.90;99.90;;;;;;4942631;28;20221;-66
2022/03/26 11:53:09;;;;;;;15.98;9.95;;;28.60;99.90;;;;;;4964578;28;20228;-66
2022/03/26 11:55:42;;;;;;;12.98;9.63;;;27.00;99.90;;;;;;4975705;28;20217;-67
2022/03/26 11:58:27;;;;;;;13.95;10.70;;;27.80;99.90;;;;;;4963401;28;20205;-66
2022/03/26 12:01:00;;;;;;;17.17;12.15;;;29.20;99.90;;;;;;4965453;28;20325;-66
2022/03/26 12:03:50;;;;;;;16.42;12.00;;;28.80;99.90;;;;;;4964740;28;20193;-67
2022/03/26 12:06:35;;;;;;;14.82;11.15;;;28.70;99.90;;;;;;4960492;28;20541;-66
2022/03/26 12:09:02;;;;;;;17.63;12.93;;;29.70;99.90;;;;;;4934816;28;20213;-65
2022/03/26 12:11:33;;;;;;;16.90;12.88;;;29.50;99.90;;;;;;4935469;28;20245;-68
2022/03/26 12:14:08;;;;;;;15.25;12.65;;;29.10;99.90;;;;;;4962650;28;20206;-66
2022/03/26 12:16:50;;;;;;;16.50;11.63;;;29.30;99.90;;;;;;4959204;28;20303;-66
2022/03/26 12:19:39;;;;;;;13.68;11.05;;;29.60;99.90;;;;;;4961970;28;20222;-66
2022/03/26 12:22:28;;;;;;;12.55;9.93;;;28.90;99.90;;;;;;4960958;28;20304;-66
2022/03/26 12:24:56;;;;;;;12.65;9.65;;;29.30;99.90;;;;;;4959414;28;20193;-65
2022/03/26 12:27:24;;;;;;;13.23;9.73;;;29.50;99.90;;;;;;4980774;28;20550;-65
2022/03/26 12:29:58;;;;;;;12.15;10.07;;;27.90;99.90;;;;;;4981047;28;20653;-66
2022/03/26 12:32:32;;;;;;;17.80;11.45;;;26.70;99.90;;;;;;4962892;28;20198;-65
2022/03/26 12:35:05;;;;;;;13.88;10.63;;;25.00;99.90;;;;;;4980590;28;20529;-66
2022/03/26 12:37:33;;;;;;;16.30;11.50;;;25.00;99.90;;;;;;4956958;28;20268;-65
2022/03/26 12:40:10;;;;;;;15.88;11.18;;;25.30;99.90;;;;;;4946221;28;20742;-66
2022/03/26 12:42:40;;;;;;;14.75;12.23;;;24.80;99.90;;;;;;4962770;28;20203;-65
2022/03/26 12:45:17;;;;;;;15.15;11.85;;;24.60;99.90;;;;;;4961565;28;20230;-66
2022/03/26 12:47:48;;;;;;;18.30;11.80;;;23.90;99.90;;;;;;4960517;28;20194;-65
2022/03/26 12:50:20;;;;;;;17.08;12.20;;;23.30;99.90;;;;;;4944604;28;20198;-65
2022/03/26 12:52:48;;;;;;;17.17;11.10;;;23.40;99.90;;;;;;4976079;28;20233;-65
2022/03/26 12:55:18;;;;;;;16.80;11.57;;;23.80;99.90;;;;;;4958571;28;20257;-65
2022/03/26 13:00:35;;;;;;;14.52;10.70;;;23.80;99.90;;;;;;4971789;28;20229;-66